sensor_id;sensor_type;location;lat;lon;timestamp;pressure;altitude;pressure_sealevel;temperature;humidity
15674;BME280;7937;48.090;16.212;2023-02-19T00:01:26;97876.75;;;11.73;58.40
15674;BME280;7937;48.090;16.212;2023-02-19T00:04:28;97874.06;;;11.73;58.91
15674;BME280;7937;48.090;16.212;2023-02-19T00:07:30;97881.09;;;11.79;58.79
15674;BME280;7937;48.090;16.212;2023-02-19T00:10:32;97877.03;;;11.76;59.19
15674;BME280;7937;48.090;16.212;2023-02-19T00:13:35;97876.75;;;11.73;58.69
15674;BME280;7937;48.090;16.212;2023-02-19T00:16:38;97908.19;;;11.71;58.86
15674;BME280;7937;48.090;16.212;2023-02-19T00:19:40;97860.16;;;11.54;59.27
15674;BME280;7937;48.090;16.212;2023-02-19T00:22:42;97878.94;;;11.59;59.13
15674;BME280;7937;48.090;16.212;2023-02-19T00:25:44;97903.44;;;11.73;58.90
15674;BME280;7937;48.090;16.212;2023-02-19T00:28:48;97916.78;;;11.73;59.42
15674;BME280;7937;48.090;16.212;2023-02-19T00:31:50;97901.56;;;11.73;59.58
15674;BME280;7937;48.090;16.212;2023-02-19T00:34:53;97913.78;;;11.69;59.67
15674;BME280;7937;48.090;16.212;2023-02-19T00:37:55;97900.28;;;11.59;60.07
15674;BME280;7937;48.090;16.212;2023-02-19T00:40:59;97920.25;;;11.73;60.19
15674;BME280;7937;48.090;16.212;2023-02-19T00:44:05;97913.69;;;11.64;60.37
15674;BME280;7937;48.090;16.212;2023-02-19T00:47:07;97914.75;;;11.63;60.68
15674;BME280;7937;48.090;16.212;2023-02-19T00:50:12;97889.91;;;11.46;60.70
15674;BME280;7937;48.090;16.212;2023-02-19T00:53:14;97926.22;;;11.63;60.54
15674;BME280;7937;48.090;16.212;2023-02-19T00:56:17;97912.13;;;11.51;61.76
15674;BME280;7937;48.090;16.212;2023-02-19T00:59:19;97915.38;;;11.53;61.59
15674;BME280;7937;48.090;16.212;2023-02-19T01:02:21;97924.41;;;11.52;61.65
15674;BME280;7937;48.090;16.212;2023-02-19T01:05:23;97896.47;;;11.38;61.93
15674;BME280;7937;48.090;16.212;2023-02-19T01:08:25;97920.88;;;11.47;62.34
15674;BME280;7937;48.090;16.212;2023-02-19T01:11:28;97916.25;;;11.42;62.84
15674;BME280;7937;48.090;16.212;2023-02-19T01:14:30;97907.53;;;11.30;63.11
15674;BME280;7937;48.090;16.212;2023-02-19T01:17:34;97905.81;;;11.24;64.40
15674;BME280;7937;48.090;16.212;2023-02-19T01:20:39;97899.81;;;11.17;64.64
15674;BME280;7937;48.090;16.212;2023-02-19T01:23:41;97897.94;;;11.17;65.17
15674;BME280;7937;48.090;16.212;2023-02-19T01:26:44;97895.69;;;11.09;65.61
15674;BME280;7937;48.090;16.212;2023-02-19T01:29:46;97907.88;;;11.05;65.62
15674;BME280;7937;48.090;16.212;2023-02-19T01:32:48;97898.28;;;11.04;65.68
15674;BME280;7937;48.090;16.212;2023-02-19T01:35:52;97896.88;;;11.01;65.65
15674;BME280;7937;48.090;16.212;2023-02-19T01:38:54;97901.31;;;10.96;65.77
15674;BME280;7937;48.090;16.212;2023-02-19T01:41:56;97881.69;;;11.02;65.56
15674;BME280;7937;48.090;16.212;2023-02-19T01:45:20;97890.41;;;10.97;66.61
15674;BME280;7937;48.090;16.212;2023-02-19T01:48:26;97894.69;;;10.98;66.95
15674;BME280;7937;48.090;16.212;2023-02-19T01:51:31;97886.03;;;10.91;66.85
15674;BME280;7937;48.090;16.212;2023-02-19T01:54:36;97875.09;;;10.76;67.50
15674;BME280;7937;48.090;16.212;2023-02-19T01:57:43;97880.22;;;10.66;67.45
15674;BME280;7937;48.090;16.212;2023-02-19T02:00:50;97875.34;;;10.74;67.53
15674;BME280;7937;48.090;16.212;2023-02-19T02:03:52;97873.78;;;10.78;67.20
15674;BME280;7937;48.090;16.212;2023-02-19T02:06:55;97882.38;;;10.80;66.94
15674;BME280;7937;48.090;16.212;2023-02-19T02:09:58;97865.78;;;10.78;66.90
15674;BME280;7937;48.090;16.212;2023-02-19T02:13:19;97875.66;;;10.78;66.53
15674;BME280;7937;48.090;16.212;2023-02-19T02:36:02;97854.03;;;10.74;66.72
15674;BME280;7937;48.090;16.212;2023-02-19T02:39:08;97826.84;;;10.61;67.31
15674;BME280;7937;48.090;16.212;2023-02-19T02:42:12;97833.81;;;10.78;66.76
15674;BME280;7937;48.090;16.212;2023-02-19T02:45:37;97832.03;;;10.67;67.40
15674;BME280;7937;48.090;16.212;2023-02-19T02:49:00;97831.06;;;10.73;67.54
15674;BME280;7937;48.090;16.212;2023-02-19T02:52:06;97839.13;;;10.62;68.05
15674;BME280;7937;48.090;16.212;2023-02-19T02:55:30;97832.94;;;10.73;67.55
15674;BME280;7937;48.090;16.212;2023-02-19T02:58:35;97775.28;;;10.38;68.05
15674;BME280;7937;48.090;16.212;2023-02-19T03:01:44;97817.34;;;10.65;68.05
15674;BME280;7937;48.090;16.212;2023-02-19T03:05:11;97817.00;;;10.61;68.85
15674;BME280;7937;48.090;16.212;2023-02-19T03:08:39;97788.59;;;10.38;68.68
15674;BME280;7937;48.090;16.212;2023-02-19T03:11:43;97806.72;;;10.53;68.81
15674;BME280;7937;48.090;16.212;2023-02-19T03:15:08;97813.66;;;10.54;68.56
15674;BME280;7937;48.090;16.212;2023-02-19T03:18:32;97769.53;;;10.29;68.86
15674;BME280;7937;48.090;16.212;2023-02-19T03:22:01;97818.28;;;10.58;68.49
15674;BME280;7937;48.090;16.212;2023-02-19T03:25:23;97818.53;;;10.57;68.63
15674;BME280;7937;48.090;16.212;2023-02-19T03:28:50;97808.31;;;10.54;68.76
15674;BME280;7937;48.090;16.212;2023-02-19T03:35:32;97809.53;;;10.46;69.21
15674;BME280;7937;48.090;16.212;2023-02-19T03:39:02;97794.06;;;10.31;69.04
15674;BME280;7937;48.090;16.212;2023-02-19T03:45:35;97815.00;;;10.40;69.57
15674;BME280;7937;48.090;16.212;2023-02-19T03:48:59;97821.69;;;10.42;69.63
15674;BME280;7937;48.090;16.212;2023-02-19T03:52:17;97802.25;;;10.42;70.04
15674;BME280;7937;48.090;16.212;2023-02-19T03:55:31;97784.00;;;10.22;70.13
15674;BME280;7937;48.090;16.212;2023-02-19T03:59:11;97803.81;;;10.26;70.37
15674;BME280;7937;48.090;16.212;2023-02-19T04:05:26;97802.72;;;10.39;69.97
15674;BME280;7937;48.090;16.212;2023-02-19T04:08:33;97812.47;;;10.21;70.05
15674;BME280;7937;48.090;16.212;2023-02-19T04:11:38;97806.69;;;10.36;69.95
15674;BME280;7937;48.090;16.212;2023-02-19T04:15:09;97807.03;;;10.40;69.79
15674;BME280;7937;48.090;16.212;2023-02-19T04:18:15;97804.25;;;10.35;70.09
15674;BME280;7937;48.090;16.212;2023-02-19T04:21:21;97805.38;;;10.39;69.85
15674;BME280;7937;48.090;16.212;2023-02-19T04:24:34;97774.06;;;10.17;70.44
15674;BME280;7937;48.090;16.212;2023-02-19T04:27:38;97800.75;;;10.34;70.57
15674;BME280;7937;48.090;16.212;2023-02-19T04:30:41;97758.22;;;10.11;70.76
15674;BME280;7937;48.090;16.212;2023-02-19T04:33:44;97781.09;;;10.23;70.72
15674;BME280;7937;48.090;16.212;2023-02-19T04:36:46;97794.97;;;10.37;70.89
15674;BME280;7937;48.090;16.212;2023-02-19T04:39:48;97777.28;;;10.31;71.12
15674;BME280;7937;48.090;16.212;2023-02-19T04:42:50;97779.38;;;10.29;70.75
15674;BME280;7937;48.090;16.212;2023-02-19T04:45:52;97773.03;;;10.30;70.85
15674;BME280;7937;48.090;16.212;2023-02-19T04:48:54;97782.72;;;10.36;70.43
15674;BME280;7937;48.090;16.212;2023-02-19T04:51:56;97783.75;;;10.35;70.14
15674;BME280;7937;48.090;16.212;2023-02-19T04:54:58;97777.84;;;10.33;70.33
15674;BME280;7937;48.090;16.212;2023-02-19T04:58:00;97774.13;;;10.34;70.16
15674;BME280;7937;48.090;16.212;2023-02-19T05:01:03;97769.88;;;10.33;69.81
15674;BME280;7937;48.090;16.212;2023-02-19T05:04:05;97768.97;;;10.27;70.25
15674;BME280;7937;48.090;16.212;2023-02-19T05:07:07;97789.09;;;10.23;69.66
15674;BME280;7937;48.090;16.212;2023-02-19T05:10:09;97773.47;;;10.27;69.55
15674;BME280;7937;48.090;16.212;2023-02-19T05:13:11;97757.34;;;10.33;69.30
15674;BME280;7937;48.090;16.212;2023-02-19T05:16:14;97757.03;;;10.30;69.37
15674;BME280;7937;48.090;16.212;2023-02-19T05:19:19;97751.91;;;10.40;68.84
15674;BME280;7937;48.090;16.212;2023-02-19T05:22:21;97752.47;;;10.42;68.51
15674;BME280;7937;48.090;16.212;2023-02-19T05:25:23;97746.69;;;10.33;68.53
15674;BME280;7937;48.090;16.212;2023-02-19T05:28:25;97738.72;;;10.33;68.86
15674;BME280;7937;48.090;16.212;2023-02-19T05:31:29;97696.91;;;10.05;68.99
15674;BME280;7937;48.090;16.212;2023-02-19T05:34:34;97719.28;;;10.33;69.05
15674;BME280;7937;48.090;16.212;2023-02-19T05:37:36;97713.72;;;10.35;68.63
15674;BME280;7937;48.090;16.212;2023-02-19T05:40:38;97712.88;;;10.34;68.81
15674;BME280;7937;48.090;16.212;2023-02-19T05:43:42;97721.03;;;10.27;69.04
15674;BME280;7937;48.090;16.212;2023-02-19T05:46:45;97714.19;;;10.31;68.93
15674;BME280;7937;48.090;16.212;2023-02-19T05:49:47;97714.44;;;10.30;69.03
15674;BME280;7937;48.090;16.212;2023-02-19T05:52:49;97703.78;;;10.30;69.15
15674;BME280;7937;48.090;16.212;2023-02-19T05:55:52;97699.28;;;10.30;68.84
15674;BME280;7937;48.090;16.212;2023-02-19T05:58:55;97704.81;;;10.29;69.38
15674;BME280;7937;48.090;16.212;2023-02-19T06:01:57;97716.28;;;10.18;69.49
15674;BME280;7937;48.090;16.212;2023-02-19T06:04:59;97693.94;;;10.30;68.80
15674;BME280;7937;48.090;16.212;2023-02-19T06:08:01;97690.56;;;10.35;68.64
15674;BME280;7937;48.090;16.212;2023-02-19T06:11:03;97701.69;;;10.32;68.83
15674;BME280;7937;48.090;16.212;2023-02-19T06:14:06;97701.34;;;10.28;68.60
15674;BME280;7937;48.090;16.212;2023-02-19T06:17:08;97680.00;;;10.40;67.92
15674;BME280;7937;48.090;16.212;2023-02-19T06:20:10;97677.56;;;10.39;67.75
15674;BME280;7937;48.090;16.212;2023-02-19T06:23:12;97672.91;;;10.17;67.45
15674;BME280;7937;48.090;16.212;2023-02-19T06:26:16;97694.25;;;10.34;67.98
15674;BME280;7937;48.090;16.212;2023-02-19T06:29:19;97692.44;;;10.51;66.22
15674;BME280;7937;48.090;16.212;2023-02-19T06:32:21;97691.97;;;10.54;66.16
15674;BME280;7937;48.090;16.212;2023-02-19T06:35:24;97695.34;;;10.50;65.67
15674;BME280;7937;48.090;16.212;2023-02-19T06:38:26;97693.50;;;10.67;65.45
15674;BME280;7937;48.090;16.212;2023-02-19T06:41:28;97691.88;;;10.66;65.06
15674;BME280;7937;48.090;16.212;2023-02-19T06:44:30;97704.47;;;10.71;64.88
15674;BME280;7937;48.090;16.212;2023-02-19T06:47:33;97717.00;;;10.70;64.85
15674;BME280;7937;48.090;16.212;2023-02-19T06:50:35;97650.78;;;10.45;64.52
15674;BME280;7937;48.090;16.212;2023-02-19T06:53:37;97704.56;;;10.76;64.87
15674;BME280;7937;48.090;16.212;2023-02-19T06:56:40;97667.31;;;10.47;64.63
15674;BME280;7937;48.090;16.212;2023-02-19T06:59:42;97688.16;;;10.67;63.84
15674;BME280;7937;48.090;16.212;2023-02-19T07:02:44;97724.84;;;10.94;63.91
15674;BME280;7937;48.090;16.212;2023-02-19T07:05:47;97723.44;;;10.91;63.70
15674;BME280;7937;48.090;16.212;2023-02-19T07:08:50;97705.25;;;10.88;64.02
15674;BME280;7937;48.090;16.212;2023-02-19T07:11:52;97681.47;;;10.65;63.43
15674;BME280;7937;48.090;16.212;2023-02-19T07:14:55;97723.53;;;10.96;63.27
15674;BME280;7937;48.090;16.212;2023-02-19T07:17:58;97724.97;;;10.87;63.21
15674;BME280;7937;48.090;16.212;2023-02-19T07:21:08;97727.31;;;10.83;63.18
15674;BME280;7937;48.090;16.212;2023-02-19T07:24:11;97755.25;;;10.98;62.45
15674;BME280;7937;48.090;16.212;2023-02-19T07:27:13;97742.66;;;10.93;63.26
15674;BME280;7937;48.090;16.212;2023-02-19T07:30:15;97715.44;;;10.91;63.26
15674;BME280;7937;48.090;16.212;2023-02-19T07:33:17;97750.75;;;10.81;63.89
15674;BME280;7937;48.090;16.212;2023-02-19T07:36:21;97729.25;;;10.88;63.43
15674;BME280;7937;48.090;16.212;2023-02-19T07:39:24;97717.63;;;10.77;64.54
15674;BME280;7937;48.090;16.212;2023-02-19T07:42:26;97728.38;;;10.82;64.32
15674;BME280;7937;48.090;16.212;2023-02-19T07:45:28;97720.22;;;10.89;64.34
15674;BME280;7937;48.090;16.212;2023-02-19T07:48:30;97683.00;;;10.77;63.91
15674;BME280;7937;48.090;16.212;2023-02-19T07:51:32;97719.31;;;11.17;63.70
15674;BME280;7937;48.090;16.212;2023-02-19T07:54:34;97718.66;;;11.27;63.35
15674;BME280;7937;48.090;16.212;2023-02-19T07:57:36;97714.84;;;11.40;62.99
15674;BME280;7937;48.090;16.212;2023-02-19T08:00:38;97734.44;;;11.50;63.23
15674;BME280;7937;48.090;16.212;2023-02-19T08:03:41;97718.63;;;11.44;63.31
15674;BME280;7937;48.090;16.212;2023-02-19T08:06:43;97730.59;;;11.41;62.42
15674;BME280;7937;48.090;16.212;2023-02-19T08:09:45;97723.25;;;11.31;62.43
15674;BME280;7937;48.090;16.212;2023-02-19T08:13:10;97722.06;;;11.05;62.76
15674;BME280;7937;48.090;16.212;2023-02-19T08:16:26;97763.25;;;11.31;62.29
15674;BME280;7937;48.090;16.212;2023-02-19T08:19:43;97764.56;;;11.29;62.93
15674;BME280;7937;48.090;16.212;2023-02-19T08:22:45;97764.88;;;11.16;63.79
15674;BME280;7937;48.090;16.212;2023-02-19T08:25:48;97767.16;;;11.24;63.28
15674;BME280;7937;48.090;16.212;2023-02-19T08:28:51;97775.22;;;11.12;63.06
15674;BME280;7937;48.090;16.212;2023-02-19T08:31:53;97755.75;;;11.28;63.10
15674;BME280;7937;48.090;16.212;2023-02-19T08:34:55;97763.78;;;11.50;62.63
15674;BME280;7937;48.090;16.212;2023-02-19T08:37:57;97772.84;;;11.49;62.88
15674;BME280;7937;48.090;16.212;2023-02-19T08:41:03;97769.06;;;11.45;63.21
15674;BME280;7937;48.090;16.212;2023-02-19T08:44:05;97760.19;;;11.40;63.18
15674;BME280;7937;48.090;16.212;2023-02-19T08:47:07;97737.81;;;11.24;62.60
15674;BME280;7937;48.090;16.212;2023-02-19T08:50:10;97787.84;;;11.33;62.26
15674;BME280;7937;48.090;16.212;2023-02-19T08:53:12;97748.38;;;11.35;62.81
15674;BME280;7937;48.090;16.212;2023-02-19T08:56:15;97762.84;;;11.40;62.02
15674;BME280;7937;48.090;16.212;2023-02-19T08:59:18;97739.03;;;11.16;61.87
15674;BME280;7937;48.090;16.212;2023-02-19T09:02:22;97767.84;;;11.36;61.97
15674;BME280;7937;48.090;16.212;2023-02-19T09:05:24;97758.31;;;11.40;62.47
15674;BME280;7937;48.090;16.212;2023-02-19T09:08:26;97768.72;;;11.42;62.77
15674;BME280;7937;48.090;16.212;2023-02-19T09:11:28;97779.81;;;11.50;62.37
15674;BME280;7937;48.090;16.212;2023-02-19T09:14:31;97773.19;;;11.53;63.45
15674;BME280;7937;48.090;16.212;2023-02-19T09:17:34;97774.50;;;11.72;61.36
15674;BME280;7937;48.090;16.212;2023-02-19T09:20:36;97746.44;;;11.48;62.28
15674;BME280;7937;48.090;16.212;2023-02-19T09:23:38;97786.88;;;11.61;63.68
15674;BME280;7937;48.090;16.212;2023-02-19T09:26:40;97792.59;;;11.15;66.53
15674;BME280;7937;48.090;16.212;2023-02-19T09:29:42;97791.78;;;10.97;69.45
15674;BME280;7937;48.090;16.212;2023-02-19T09:32:44;97794.59;;;10.74;70.62
15674;BME280;7937;48.090;16.212;2023-02-19T09:35:46;97798.88;;;10.75;69.24
15674;BME280;7937;48.090;16.212;2023-02-19T09:38:49;97799.44;;;10.48;71.25
15674;BME280;7937;48.090;16.212;2023-02-19T09:41:55;97785.63;;;10.23;72.44
15674;BME280;7937;48.090;16.212;2023-02-19T09:44:59;97785.78;;;10.04;73.14
15674;BME280;7937;48.090;16.212;2023-02-19T09:48:03;97757.13;;;9.83;73.43
15674;BME280;7937;48.090;16.212;2023-02-19T09:51:08;97775.72;;;9.95;73.18
15674;BME280;7937;48.090;16.212;2023-02-19T09:54:21;97748.56;;;9.93;74.19
15674;BME280;7937;48.090;16.212;2023-02-19T09:57:26;97746.56;;;10.00;73.75
15674;BME280;7937;48.090;16.212;2023-02-19T10:00:32;97765.28;;;10.17;73.42
15674;BME280;7937;48.090;16.212;2023-02-19T10:03:37;97763.34;;;10.41;72.90
15674;BME280;7937;48.090;16.212;2023-02-19T10:06:42;97718.59;;;10.54;72.23
15674;BME280;7937;48.090;16.212;2023-02-19T10:09:50;97727.00;;;11.52;68.99
15674;BME280;7937;48.090;16.212;2023-02-19T10:12:58;97693.19;;;12.02;67.84
15674;BME280;7937;48.090;16.212;2023-02-19T10:16:03;97718.03;;;12.83;65.75
15674;BME280;7937;48.090;16.212;2023-02-19T10:19:10;97678.31;;;12.97;62.04
15674;BME280;7937;48.090;16.212;2023-02-19T10:22:13;97719.09;;;13.57;61.68
15674;BME280;7937;48.090;16.212;2023-02-19T10:25:16;97720.25;;;13.76;59.86
15674;BME280;7937;48.090;16.212;2023-02-19T10:28:20;97703.44;;;13.86;57.89
15674;BME280;7937;48.090;16.212;2023-02-19T10:31:24;97735.34;;;14.03;56.98
15674;BME280;7937;48.090;16.212;2023-02-19T10:34:27;97730.34;;;14.27;55.64
15674;BME280;7937;48.090;16.212;2023-02-19T10:37:29;97730.13;;;14.38;53.88
15674;BME280;7937;48.090;16.212;2023-02-19T10:40:32;97730.06;;;14.23;51.58
15674;BME280;7937;48.090;16.212;2023-02-19T10:43:36;97742.59;;;14.07;52.83
15674;BME280;7937;48.090;16.212;2023-02-19T10:46:47;97761.53;;;13.85;52.73
15674;BME280;7937;48.090;16.212;2023-02-19T10:49:52;97756.22;;;13.90;53.24
15674;BME280;7937;48.090;16.212;2023-02-19T10:52:58;97764.31;;;14.06;50.95
15674;BME280;7937;48.090;16.212;2023-02-19T10:56:08;97748.84;;;14.33;51.20
15674;BME280;7937;48.090;16.212;2023-02-19T11:02:20;97741.38;;;13.73;53.59
15674;BME280;7937;48.090;16.212;2023-02-19T11:05:22;97803.53;;;13.75;53.38
15674;BME280;7937;48.090;16.212;2023-02-19T11:08:26;97742.78;;;13.80;53.08
15674;BME280;7937;48.090;16.212;2023-02-19T11:11:29;97760.06;;;13.62;53.61
15674;BME280;7937;48.090;16.212;2023-02-19T11:14:33;97736.03;;;12.93;54.66
15674;BME280;7937;48.090;16.212;2023-02-19T11:17:36;97772.88;;;12.86;54.84
15674;BME280;7937;48.090;16.212;2023-02-19T11:20:47;97800.19;;;12.93;55.39
15674;BME280;7937;48.090;16.212;2023-02-19T11:23:50;97788.47;;;13.26;54.30
15674;BME280;7937;48.090;16.212;2023-02-19T11:26:53;97774.81;;;13.65;53.23
15674;BME280;7937;48.090;16.212;2023-02-19T11:33:43;97792.25;;;14.30;52.14
15674;BME280;7937;48.090;16.212;2023-02-19T11:37:06;97772.84;;;14.03;54.30
15674;BME280;7937;48.090;16.212;2023-02-19T11:40:11;97810.66;;;14.06;51.88
15674;BME280;7937;48.090;16.212;2023-02-19T11:43:21;97797.09;;;13.76;52.00
15674;BME280;7937;48.090;16.212;2023-02-19T11:46:42;97794.78;;;13.47;52.58
15674;BME280;7937;48.090;16.212;2023-02-19T11:53:30;97757.81;;;13.44;52.98
15674;BME280;7937;48.090;16.212;2023-02-19T11:56:35;97781.06;;;13.38;53.21
15674;BME280;7937;48.090;16.212;2023-02-19T11:59:53;97765.59;;;13.46;52.25
15674;BME280;7937;48.090;16.212;2023-02-19T12:06:39;97789.47;;;12.88;52.16
15674;BME280;7937;48.090;16.212;2023-02-19T12:16:53;97786.81;;;12.12;55.81
15674;BME280;7937;48.090;16.212;2023-02-19T12:30:48;97804.03;;;12.26;56.08
15674;BME280;7937;48.090;16.212;2023-02-19T12:34:30;97816.53;;;12.70;54.33
15674;BME280;7937;48.090;16.212;2023-02-19T12:47:56;97788.13;;;13.50;51.72
15674;BME280;7937;48.090;16.212;2023-02-19T12:51:08;97801.31;;;13.29;51.77
15674;BME280;7937;48.090;16.212;2023-02-19T12:57:32;97802.25;;;13.13;51.74
15674;BME280;7937;48.090;16.212;2023-02-19T13:00:43;97773.22;;;13.27;51.66
15674;BME280;7937;48.090;16.212;2023-02-19T13:11:04;97761.19;;;13.29;49.35
15674;BME280;7937;48.090;16.212;2023-02-19T13:17:43;97818.38;;;12.91;50.67
15674;BME280;7937;48.090;16.212;2023-02-19T13:20:47;97814.69;;;12.97;50.43
15674;BME280;7937;48.090;16.212;2023-02-19T13:23:53;97799.69;;;12.69;51.75
15674;BME280;7937;48.090;16.212;2023-02-19T13:34:38;97803.13;;;12.37;53.72
15674;BME280;7937;48.090;16.212;2023-02-19T13:37:49;97805.63;;;12.22;52.50
15674;BME280;7937;48.090;16.212;2023-02-19T13:40:57;97801.75;;;12.13;53.13
15674;BME280;7937;48.090;16.212;2023-02-19T13:44:03;97808.88;;;12.29;52.87
15674;BME280;7937;48.090;16.212;2023-02-19T13:50:48;97789.56;;;12.44;52.81
15674;BME280;7937;48.090;16.212;2023-02-19T13:57:24;97812.50;;;12.18;52.73
15674;BME280;7937;48.090;16.212;2023-02-19T14:00:49;97792.44;;;12.16;52.02
15674;BME280;7937;48.090;16.212;2023-02-19T14:04:05;97824.19;;;12.12;52.73
15674;BME280;7937;48.090;16.212;2023-02-19T14:10:14;97817.19;;;11.72;52.95
15674;BME280;7937;48.090;16.212;2023-02-19T14:16:59;97837.03;;;11.59;53.05
15674;BME280;7937;48.090;16.212;2023-02-19T14:20:43;97849.72;;;11.52;53.00
15674;BME280;7937;48.090;16.212;2023-02-19T14:23:51;97853.16;;;11.48;53.30
15674;BME280;7937;48.090;16.212;2023-02-19T14:26:59;97860.72;;;11.39;53.85
15674;BME280;7937;48.090;16.212;2023-02-19T14:30:02;97880.13;;;11.34;54.14
15674;BME280;7937;48.090;16.212;2023-02-19T14:33:09;97875.81;;;11.17;55.71
15674;BME280;7937;48.090;16.212;2023-02-19T14:36:30;97870.69;;;10.98;56.70
15674;BME280;7937;48.090;16.212;2023-02-19T14:39:35;97876.28;;;10.97;57.47
15674;BME280;7937;48.090;16.212;2023-02-19T14:42:40;97885.38;;;10.84;59.81
15674;BME280;7937;48.090;16.212;2023-02-19T14:45:48;97893.06;;;10.69;61.69
15674;BME280;7937;48.090;16.212;2023-02-19T14:48:52;97884.88;;;10.58;62.08
15674;BME280;7937;48.090;16.212;2023-02-19T14:52:02;97843.31;;;10.05;63.32
15674;BME280;7937;48.090;16.212;2023-02-19T14:58:21;97898.97;;;10.30;62.81
15674;BME280;7937;48.090;16.212;2023-02-19T15:01:27;97858.22;;;9.95;64.88
15674;BME280;7937;48.090;16.212;2023-02-19T15:04:35;97887.75;;;10.05;66.32
15674;BME280;7937;48.090;16.212;2023-02-19T15:07:40;97899.88;;;10.13;64.50
15674;BME280;7937;48.090;16.212;2023-02-19T15:10:43;97905.66;;;10.09;64.96
15674;BME280;7937;48.090;16.212;2023-02-19T15:13:53;97897.44;;;9.99;65.98
15674;BME280;7937;48.090;16.212;2023-02-19T15:17:03;97907.75;;;9.84;66.04
15674;BME280;7937;48.090;16.212;2023-02-19T15:20:18;97921.63;;;9.63;66.43
15674;BME280;7937;48.090;16.212;2023-02-19T15:23:24;97904.25;;;9.48;67.05
15674;BME280;7937;48.090;16.212;2023-02-19T15:26:36;97898.94;;;9.48;68.44
15674;BME280;7937;48.090;16.212;2023-02-19T15:29:45;97906.69;;;9.50;67.82
15674;BME280;7937;48.090;16.212;2023-02-19T15:32:54;97858.88;;;9.20;67.00
15674;BME280;7937;48.090;16.212;2023-02-19T15:36:01;97895.59;;;9.53;67.05
15674;BME280;7937;48.090;16.212;2023-02-19T15:39:06;97858.81;;;9.26;66.38
15674;BME280;7937;48.090;16.212;2023-02-19T15:42:15;97897.44;;;9.52;66.63
15674;BME280;7937;48.090;16.212;2023-02-19T15:45:27;97906.59;;;9.56;66.44
15674;BME280;7937;48.090;16.212;2023-02-19T15:49:38;97899.31;;;9.64;65.01
15674;BME280;7937;48.090;16.212;2023-02-19T15:52:18;97902.78;;;9.64;63.45
15674;BME280;7937;48.090;16.212;2023-02-19T15:55:28;97900.03;;;9.71;63.87
15674;BME280;7937;48.090;16.212;2023-02-19T15:58:53;97930.09;;;9.71;64.56
15674;BME280;7937;48.090;16.212;2023-02-19T16:01:59;97948.78;;;9.65;64.84
15674;BME280;7937;48.090;16.212;2023-02-19T16:05:22;97959.00;;;9.68;64.05
15674;BME280;7937;48.090;16.212;2023-02-19T16:08:32;97954.69;;;9.55;64.21
15674;BME280;7937;48.090;16.212;2023-02-19T16:11:49;97959.88;;;9.50;63.32
15674;BME280;7937;48.090;16.212;2023-02-19T16:14:53;97952.31;;;9.35;64.34
15674;BME280;7937;48.090;16.212;2023-02-19T16:17:57;97988.09;;;9.51;63.74
15674;BME280;7937;48.090;16.212;2023-02-19T16:21:07;98023.78;;;9.43;65.41
15674;BME280;7937;48.090;16.212;2023-02-19T16:24:25;98043.19;;;9.32;66.95
15674;BME280;7937;48.090;16.212;2023-02-19T16:27:33;98072.28;;;9.09;70.29
15674;BME280;7937;48.090;16.212;2023-02-19T16:30:37;98082.25;;;8.01;71.94
15674;BME280;7937;48.090;16.212;2023-02-19T16:33:42;98069.13;;;7.50;73.91
15674;BME280;7937;48.090;16.212;2023-02-19T16:36:46;98075.50;;;7.36;75.11
15674;BME280;7937;48.090;16.212;2023-02-19T16:46:17;98089.66;;;7.16;76.42
15674;BME280;7937;48.090;16.212;2023-02-19T16:49:24;98058.19;;;6.82;76.69
15674;BME280;7937;48.090;16.212;2023-02-19T16:52:27;98109.81;;;7.17;77.07
15674;BME280;7937;48.090;16.212;2023-02-19T16:55:31;98117.56;;;7.19;76.65
15674;BME280;7937;48.090;16.212;2023-02-19T16:58:34;98131.03;;;7.17;75.94
15674;BME280;7937;48.090;16.212;2023-02-19T17:01:40;98134.66;;;7.23;76.25
15674;BME280;7937;48.090;16.212;2023-02-19T17:04:45;98140.59;;;7.25;76.09
15674;BME280;7937;48.090;16.212;2023-02-19T17:07:49;98126.97;;;7.15;75.68
15674;BME280;7937;48.090;16.212;2023-02-19T17:10:54;98146.69;;;7.19;76.12
15674;BME280;7937;48.090;16.212;2023-02-19T17:13:57;98132.03;;;7.16;75.64
15674;BME280;7937;48.090;16.212;2023-02-19T17:17:00;98132.44;;;7.20;76.03
15674;BME280;7937;48.090;16.212;2023-02-19T17:20:32;98130.41;;;7.22;76.31
15674;BME280;7937;48.090;16.212;2023-02-19T17:23:36;98149.78;;;7.16;75.33
15674;BME280;7937;48.090;16.212;2023-02-19T17:26:40;98159.94;;;7.26;76.07
15674;BME280;7937;48.090;16.212;2023-02-19T17:29:45;98172.97;;;7.27;76.33
15674;BME280;7937;48.090;16.212;2023-02-19T17:32:48;98178.09;;;7.22;76.79
15674;BME280;7937;48.090;16.212;2023-02-19T17:35:54;98187.47;;;7.18;76.99
15674;BME280;7937;48.090;16.212;2023-02-19T17:38:59;98197.25;;;7.17;77.12
15674;BME280;7937;48.090;16.212;2023-02-19T17:42:02;98206.81;;;7.18;76.86
15674;BME280;7937;48.090;16.212;2023-02-19T17:45:07;98219.88;;;7.13;77.11
15674;BME280;7937;48.090;16.212;2023-02-19T17:48:11;98232.13;;;7.08;76.75
15674;BME280;7937;48.090;16.212;2023-02-19T17:51:14;98222.38;;;6.95;76.01
15674;BME280;7937;48.090;16.212;2023-02-19T17:54:17;98239.25;;;6.94;76.25
15674;BME280;7937;48.090;16.212;2023-02-19T17:57:19;98236.22;;;6.97;75.51
15674;BME280;7937;48.090;16.212;2023-02-19T18:00:28;98241.91;;;7.01;75.62
15674;BME280;7937;48.090;16.212;2023-02-19T18:03:32;98237.00;;;6.84;75.80
15674;BME280;7937;48.090;16.212;2023-02-19T18:06:36;98252.69;;;6.79;76.45
15674;BME280;7937;48.090;16.212;2023-02-19T18:09:39;98252.09;;;6.84;75.96
15674;BME280;7937;48.090;16.212;2023-02-19T18:12:42;98259.03;;;6.91;75.97
15674;BME280;7937;48.090;16.212;2023-02-19T18:15:46;98262.72;;;6.90;75.83
15674;BME280;7937;48.090;16.212;2023-02-19T18:18:51;98262.28;;;6.87;75.64
15674;BME280;7937;48.090;16.212;2023-02-19T18:21:54;98242.31;;;6.58;75.09
15674;BME280;7937;48.090;16.212;2023-02-19T18:24:58;98270.44;;;6.98;75.40
15674;BME280;7937;48.090;16.212;2023-02-19T18:28:01;98288.38;;;6.96;75.68